Time;durP1;ratioP1;P1;durP2;ratioP2;P2;SDS_P1;SDS_P2;PMS_P1;PMS_P2;Temp;Humidity;BMP_temperature;BMP_pressure;BME280_temperature;BME280_humidity;BME280_pressure;Samples;Min_cycle;Max_cycle;Signal;HPM_P1;HPM_P2
2023/06/14 00:00:59;;;;;;;4.70;1.70;;;;;;;;;;4987828;28;21764;-63
2023/06/14 00:03:25;;;;;;;5.65;1.50;;;;;;;;;;4986561;28;20042;-64
2023/06/14 00:05:52;;;;;;;5.15;2.28;;;;;;;;;;4987447;28;20401;-63
2023/06/14 00:08:18;;;;;;;6.03;2.20;;;;;;;;;;4988275;28;20143;-64
2023/06/14 00:10:45;;;;;;;5.30;1.63;;;;;;;;;;4987721;28;20075;-63
2023/06/14 00:13:11;;;;;;;5.88;1.83;;;;;;;;;;4987579;28;20135;-63
2023/06/14 00:15:38;;;;;;;5.65;1.73;;;;;;;;;;4988239;28;21740;-63
2023/06/14 00:18:04;;;;;;;6.32;1.95;;;;;;;;;;4988229;28;20077;-63
2023/06/14 00:20:32;;;;;;;5.57;1.50;;;;;;;;;;4988703;28;20087;-63
2023/06/14 00:22:58;;;;;;;4.13;1.40;;;;;;;;;;4987303;28;20132;-63
2023/06/14 00:25:28;;;;;;;5.68;1.63;;;;;;;;;;4988536;28;20116;-63
2023/06/14 00:27:57;;;;;;;5.90;1.75;;;;;;;;;;4989169;28;20248;-63
2023/06/14 00:30:24;;;;;;;5.90;2.10;;;;;;;;;;4987724;28;20030;-63
2023/06/14 00:32:51;;;;;;;7.03;1.70;;;;;;;;;;4989783;28;20025;-63
2023/06/14 00:35:17;;;;;;;4.60;1.38;;;;;;;;;;4990909;28;20030;-63
2023/06/14 00:37:43;;;;;;;5.10;1.77;;;;;;;;;;4990542;28;20559;-63
2023/06/14 00:40:09;;;;;;;4.72;1.40;;;;;;;;;;4993490;28;20072;-63
2023/06/14 00:42:35;;;;;;;5.95;1.40;;;;;;;;;;4993385;28;20028;-63
2023/06/14 00:45:01;;;;;;;8.70;1.70;;;;;;;;;;4992707;28;20033;-63
2023/06/14 00:47:27;;;;;;;7.20;1.80;;;;;;;;;;4992246;28;20514;-63
2023/06/14 00:49:54;;;;;;;4.15;1.75;;;;;;;;;;4991256;28;20078;-63
2023/06/14 00:52:20;;;;;;;4.60;1.60;;;;;;;;;;4992181;28;21248;-63
2023/06/14 00:54:47;;;;;;;8.88;1.70;;;;;;;;;;4992764;28;20157;-63
2023/06/14 00:57:13;;;;;;;4.53;1.88;;;;;;;;;;4992436;28;20080;-63
2023/06/14 00:59:47;;;;;;;6.93;1.55;;;;;;;;;;4992140;28;21295;-63
2023/06/14 01:02:14;;;;;;;5.18;1.73;;;;;;;;;;4991523;28;20032;-63
2023/06/14 01:04:47;;;;;;;3.38;1.35;;;;;;;;;;4991348;28;20026;-63
2023/06/14 01:07:34;;;;;;;5.43;1.45;;;;;;;;;;4990738;28;20046;-63
2023/06/14 01:10:14;;;;;;;3.20;1.40;;;;;;;;;;4988748;28;20128;-63
2023/06/14 01:12:43;;;;;;;6.50;1.50;;;;;;;;;;4991432;28;20053;-63
2023/06/14 01:15:10;;;;;;;2.72;1.17;;;;;;;;;;4991599;28;20540;-63
2023/06/14 01:17:43;;;;;;;5.80;1.60;;;;;;;;;;4988563;28;20056;-62
2023/06/14 01:20:12;;;;;;;5.13;1.58;;;;;;;;;;4998999;28;20152;-63
2023/06/14 01:22:38;;;;;;;6.63;1.40;;;;;;;;;;4991831;28;20029;-63
2023/06/14 01:25:04;;;;;;;3.72;1.58;;;;;;;;;;4991662;28;20044;-63
2023/06/14 01:27:32;;;;;;;4.68;1.75;;;;;;;;;;4996395;28;20038;-63
2023/06/14 01:29:59;;;;;;;4.35;1.60;;;;;;;;;;4989495;28;21778;-63
2023/06/14 01:32:27;;;;;;;4.28;1.33;;;;;;;;;;4990924;28;20025;-63
2023/06/14 01:34:53;;;;;;;6.63;1.85;;;;;;;;;;4989936;28;20412;-63
2023/06/14 01:37:19;;;;;;;7.15;1.42;;;;;;;;;;4988211;28;20041;-63
2023/06/14 01:39:46;;;;;;;4.60;1.50;;;;;;;;;;4989816;28;20933;-63
2023/06/14 01:42:13;;;;;;;4.30;1.45;;;;;;;;;;4991268;28;20025;-63
2023/06/14 01:44:40;;;;;;;3.75;1.20;;;;;;;;;;4990434;28;20033;-63
2023/06/14 01:47:07;;;;;;;4.45;1.45;;;;;;;;;;4989543;28;20044;-63
2023/06/14 01:49:36;;;;;;;5.88;1.52;;;;;;;;;;4991813;28;20153;-63
2023/06/14 01:52:02;;;;;;;2.85;1.23;;;;;;;;;;4990026;28;20908;-63
2023/06/14 01:54:29;;;;;;;3.40;1.35;;;;;;;;;;4990866;28;20041;-63
2023/06/14 01:56:56;;;;;;;2.92;1.33;;;;;;;;;;4989897;28;20046;-63
2023/06/14 01:59:22;;;;;;;5.97;1.63;;;;;;;;;;4992358;28;20037;-63
2023/06/14 02:01:48;;;;;;;4.00;1.70;;;;;;;;;;4990881;28;20042;-63
2023/06/14 02:04:14;;;;;;;4.75;1.42;;;;;;;;;;4990301;28;20087;-63
2023/06/14 02:06:40;;;;;;;4.88;1.58;;;;;;;;;;4991218;28;20111;-64
2023/06/14 02:09:06;;;;;;;7.43;1.95;;;;;;;;;;4991391;28;20145;-63
2023/06/14 02:11:32;;;;;;;3.53;1.45;;;;;;;;;;4992076;28;20025;-63
2023/06/14 02:13:59;;;;;;;3.47;1.38;;;;;;;;;;4988531;28;20057;-63
2023/06/14 02:16:27;;;;;;;3.88;1.92;;;;;;;;;;4991480;28;20173;-63
2023/06/14 02:18:53;;;;;;;5.28;1.83;;;;;;;;;;4990572;28;20397;-63
2023/06/14 02:21:20;;;;;;;4.05;1.80;;;;;;;;;;4991041;28;20075;-63
2023/06/14 02:23:46;;;;;;;4.45;1.67;;;;;;;;;;4990929;28;20741;-63
2023/06/14 02:26:12;;;;;;;9.52;2.03;;;;;;;;;;4989795;28;20397;-63
2023/06/14 02:28:38;;;;;;;6.60;1.60;;;;;;;;;;4990766;28;20106;-63
2023/06/14 02:31:04;;;;;;;3.83;1.90;;;;;;;;;;4991143;28;20034;-63
2023/06/14 02:33:30;;;;;;;4.82;1.85;;;;;;;;;;4990452;28;20058;-63
2023/06/14 02:35:57;;;;;;;9.10;2.00;;;;;;;;;;4990571;28;20037;-63
2023/06/14 02:38:23;;;;;;;4.22;1.65;;;;;;;;;;4991455;28;20038;-63
2023/06/14 02:40:49;;;;;;;5.00;2.05;;;;;;;;;;4990620;28;20402;-63
2023/06/14 02:43:17;;;;;;;5.28;1.80;;;;;;;;;;4991523;28;20185;-63
2023/06/14 02:45:43;;;;;;;4.70;1.90;;;;;;;;;;4989264;28;20746;-63
2023/06/14 02:48:10;;;;;;;6.78;1.75;;;;;;;;;;4989743;28;20042;-63
2023/06/14 02:50:36;;;;;;;5.53;1.85;;;;;;;;;;4990416;28;20658;-63
2023/06/14 02:53:02;;;;;;;4.13;1.75;;;;;;;;;;4989658;28;21558;-63
2023/06/14 02:55:28;;;;;;;7.50;1.80;;;;;;;;;;4989943;28;20155;-63
2023/06/14 02:57:54;;;;;;;5.28;1.88;;;;;;;;;;4991160;28;20034;-63
2023/06/14 03:00:21;;;;;;;5.18;1.80;;;;;;;;;;4989686;28;20377;-63
2023/06/14 03:02:47;;;;;;;5.82;1.60;;;;;;;;;;4989566;28;20033;-63
2023/06/14 03:05:14;;;;;;;4.53;2.00;;;;;;;;;;4989821;28;20153;-63
2023/06/14 03:07:40;;;;;;;4.40;1.70;;;;;;;;;;4990466;28;20112;-63
2023/06/14 03:10:09;;;;;;;4.55;2.03;;;;;;;;;;4991345;28;20049;-63
2023/06/14 03:12:36;;;;;;;3.58;1.88;;;;;;;;;;4991325;28;20040;-63
2023/06/14 03:15:02;;;;;;;4.07;1.70;;;;;;;;;;4990060;28;20488;-63
2023/06/14 03:17:29;;;;;;;6.00;2.00;;;;;;;;;;4989590;28;20060;-63
2023/06/14 03:19:56;;;;;;;4.53;1.80;;;;;;;;;;4989564;28;21157;-63
2023/06/14 03:22:22;;;;;;;4.32;1.80;;;;;;;;;;4989603;28;20034;-63
2023/06/14 03:24:48;;;;;;;4.95;2.05;;;;;;;;;;4989091;28;20046;-64
2023/06/14 03:27:14;;;;;;;5.93;1.98;;;;;;;;;;4990628;28;20055;-63
2023/06/14 03:29:40;;;;;;;4.47;1.88;;;;;;;;;;4989513;28;20034;-63
2023/06/14 03:32:07;;;;;;;4.93;2.22;;;;;;;;;;4990214;28;20033;-63
2023/06/14 03:34:33;;;;;;;4.55;1.92;;;;;;;;;;4987693;28;20161;-63
2023/06/14 03:36:59;;;;;;;5.93;2.13;;;;;;;;;;4989831;28;20034;-63
2023/06/14 03:39:25;;;;;;;5.13;1.70;;;;;;;;;;4989987;28;20038;-63
2023/06/14 03:41:51;;;;;;;5.63;1.77;;;;;;;;;;4989694;28;20042;-63
2023/06/14 03:44:18;;;;;;;5.82;2.30;;;;;;;;;;4989284;28;20037;-63
2023/06/14 03:46:46;;;;;;;4.95;2.05;;;;;;;;;;5002063;28;20647;-63
2023/06/14 03:49:12;;;;;;;6.75;2.20;;;;;;;;;;4986897;28;21933;-63
2023/06/14 03:51:39;;;;;;;4.15;1.80;;;;;;;;;;4988857;28;20037;-63
2023/06/14 03:54:06;;;;;;;6.95;2.08;;;;;;;;;;4986383;28;20699;-63
2023/06/14 03:56:32;;;;;;;4.32;1.95;;;;;;;;;;4987534;28;20096;-63
2023/06/14 03:58:58;;;;;;;6.45;2.40;;;;;;;;;;4989993;28;20026;-63
2023/06/14 04:01:27;;;;;;;5.75;2.22;;;;;;;;;;4988287;28;20048;-63
2023/06/14 04:03:53;;;;;;;6.43;1.98;;;;;;;;;;4988944;28;20087;-63
2023/06/14 04:06:19;;;;;;;8.60;2.45;;;;;;;;;;4989288;28;21590;-63
2023/06/14 04:08:45;;;;;;;5.15;1.90;;;;;;;;;;4990237;28;20034;-63
2023/06/14 04:11:12;;;;;;;7.15;1.90;;;;;;;;;;4989721;28;20065;-63
2023/06/14 04:13:39;;;;;;;3.67;2.05;;;;;;;;;;4989568;28;20128;-63
2023/06/14 04:16:05;;;;;;;3.72;1.73;;;;;;;;;;4987788;28;20034;-63
2023/06/14 04:18:31;;;;;;;9.32;2.60;;;;;;;;;;4989223;28;20571;-63
2023/06/14 04:20:57;;;;;;;7.70;2.10;;;;;;;;;;4988616;28;20029;-63
2023/06/14 04:23:23;;;;;;;6.15;2.35;;;;;;;;;;4989689;28;20029;-63
2023/06/14 04:25:49;;;;;;;4.30;2.08;;;;;;;;;;4988904;28;20108;-64
2023/06/14 04:28:17;;;;;;;6.15;2.20;;;;;;;;;;4988497;28;21223;-63
2023/06/14 04:30:44;;;;;;;6.07;2.53;;;;;;;;;;4987483;28;20149;-64
2023/06/14 04:33:11;;;;;;;4.38;2.03;;;;;;;;;;4989642;28;20113;-64
2023/06/14 04:35:37;;;;;;;4.80;2.05;;;;;;;;;;4988774;28;20215;-63
2023/06/14 04:38:08;;;;;;;6.10;2.70;;;;;;;;;;4989492;28;20025;-64
2023/06/14 04:40:36;;;;;;;8.55;2.60;;;;;;;;;;4988093;28;20750;-64
2023/06/14 04:43:06;;;;;;;7.55;2.22;;;;;;;;;;4990158;28;20099;-63
2023/06/14 04:45:32;;;;;;;5.03;1.80;;;;;;;;;;4989175;28;20025;-64
2023/06/14 04:48:01;;;;;;;5.63;2.33;;;;;;;;;;4989415;28;20522;-64
2023/06/14 04:50:29;;;;;;;5.95;2.50;;;;;;;;;;4987388;28;20030;-63
2023/06/14 04:52:56;;;;;;;7.00;2.60;;;;;;;;;;4988537;28;20038;-63
2023/06/14 04:55:23;;;;;;;4.55;2.00;;;;;;;;;;4991403;28;20041;-63
2023/06/14 04:57:52;;;;;;;7.10;2.50;;;;;;;;;;4986564;28;20038;-63
2023/06/14 05:00:19;;;;;;;5.43;2.30;;;;;;;;;;4991493;28;20397;-63
2023/06/14 05:02:46;;;;;;;5.85;2.38;;;;;;;;;;4991814;28;20173;-63
2023/06/14 05:05:12;;;;;;;6.75;2.80;;;;;;;;;;4992471;28;20046;-63
2023/06/14 05:07:39;;;;;;;4.55;2.03;;;;;;;;;;4991152;28;20052;-63
2023/06/14 05:10:06;;;;;;;6.68;2.47;;;;;;;;;;4991468;28;20045;-64
2023/06/14 05:12:34;;;;;;;5.20;2.47;;;;;;;;;;4992510;28;20037;-64
2023/06/14 05:15:00;;;;;;;6.38;2.35;;;;;;;;;;4992043;28;20037;-64
2023/06/14 05:17:27;;;;;;;6.10;2.33;;;;;;;;;;4992630;28;20053;-64
2023/06/14 05:19:55;;;;;;;5.18;2.22;;;;;;;;;;4992430;28;20168;-62
2023/06/14 05:22:21;;;;;;;5.32;2.40;;;;;;;;;;5010403;28;20069;-63
2023/06/14 05:24:48;;;;;;;6.72;2.35;;;;;;;;;;4996265;28;20041;-63
2023/06/14 05:27:14;;;;;;;6.20;2.42;;;;;;;;;;4996046;28;20485;-63
2023/06/14 05:29:40;;;;;;;5.90;2.47;;;;;;;;;;4995395;28;20026;-63
2023/06/14 05:32:06;;;;;;;9.10;2.75;;;;;;;;;;4995396;28;20045;-63
2023/06/14 05:34:32;;;;;;;6.18;2.97;;;;;;;;;;4995810;28;20516;-63
2023/06/14 05:36:59;;;;;;;6.97;2.55;;;;;;;;;;4994987;28;20041;-63
2023/06/14 05:39:25;;;;;;;7.15;2.95;;;;;;;;;;4996015;28;20093;-63
2023/06/14 05:41:51;;;;;;;6.55;2.70;;;;;;;;;;4996300;28;20133;-63
2023/06/14 05:44:17;;;;;;;5.78;2.55;;;;;;;;;;4997746;28;20067;-63
2023/06/14 05:46:44;;;;;;;7.75;3.15;;;;;;;;;;4991880;28;20041;-63
2023/06/14 05:49:11;;;;;;;7.05;2.67;;;;;;;;;;4994503;28;21858;-63
2023/06/14 05:51:37;;;;;;;6.15;3.00;;;;;;;;;;4993465;28;20107;-63
2023/06/14 05:54:04;;;;;;;6.72;2.83;;;;;;;;;;4994894;28;20037;-63
2023/06/14 05:56:30;;;;;;;6.28;3.10;;;;;;;;;;4994587;28;20041;-63
2023/06/14 05:58:56;;;;;;;7.75;3.17;;;;;;;;;;4994287;28;20125;-63
2023/06/14 06:01:22;;;;;;;8.02;3.60;;;;;;;;;;4992613;28;20088;-63
2023/06/14 06:03:48;;;;;;;4.97;2.72;;;;;;;;;;4993072;28;20140;-63
2023/06/14 06:06:16;;;;;;;7.25;3.47;;;;;;;;;;4992326;28;20037;-63
2023/06/14 06:08:42;;;;;;;6.78;2.70;;;;;;;;;;4994918;28;20040;-63
2023/06/14 06:11:08;;;;;;;5.38;2.58;;;;;;;;;;4994687;28;20153;-63
2023/06/14 06:13:35;;;;;;;8.82;2.45;;;;;;;;;;4996473;28;20116;-63
2023/06/14 06:16:01;;;;;;;7.88;2.92;;;;;;;;;;4988846;28;20085;-63
2023/06/14 06:18:27;;;;;;;7.60;2.58;;;;;;;;;;4996542;28;20065;-63
2023/06/14 06:20:53;;;;;;;9.18;3.17;;;;;;;;;;4998487;28;20038;-63
2023/06/14 06:23:19;;;;;;;5.68;2.50;;;;;;;;;;4998741;28;20048;-64
2023/06/14 06:25:46;;;;;;;6.90;2.83;;;;;;;;;;5013603;28;20061;-63
2023/06/14 06:28:12;;;;;;;7.13;2.90;;;;;;;;;;4998471;28;20029;-63
2023/06/14 06:30:38;;;;;;;6.03;3.08;;;;;;;;;;4998882;28;20041;-63
2023/06/14 06:33:04;;;;;;;5.63;2.70;;;;;;;;;;4997920;28;20819;-63
2023/06/14 06:35:32;;;;;;;7.80;2.70;;;;;;;;;;4998999;28;20033;-63
2023/06/14 06:37:58;;;;;;;9.88;3.00;;;;;;;;;;4999069;28;20172;-63
2023/06/14 06:40:24;;;;;;;8.50;2.85;;;;;;;;;;4997749;28;20044;-63
2023/06/14 06:42:51;;;;;;;5.97;2.55;;;;;;;;;;4999184;28;20072;-63
2023/06/14 06:45:17;;;;;;;5.72;2.22;;;;;;;;;;4998414;28;20029;-63
2023/06/14 06:47:43;;;;;;;6.78;2.30;;;;;;;;;;4999004;28;20037;-63
2023/06/14 06:50:09;;;;;;;5.32;2.13;;;;;;;;;;4998774;28;20041;-63
2023/06/14 06:52:35;;;;;;;6.47;2.35;;;;;;;;;;4998107;28;20062;-63
2023/06/14 06:55:02;;;;;;;12.63;2.35;;;;;;;;;;4999091;28;20038;-63
2023/06/14 06:57:29;;;;;;;4.68;2.28;;;;;;;;;;4998555;28;20045;-63
2023/06/14 06:59:55;;;;;;;6.70;2.25;;;;;;;;;;4998966;28;20140;-63
2023/06/14 07:02:21;;;;;;;5.90;2.90;;;;;;;;;;4997536;28;20114;-63
2023/06/14 07:04:47;;;;;;;7.25;1.90;;;;;;;;;;4998925;28;20065;-63
2023/06/14 07:07:13;;;;;;;6.22;2.03;;;;;;;;;;4998509;28;20044;-63
2023/06/14 07:09:41;;;;;;;4.57;1.77;;;;;;;;;;4998330;28;20049;-63
2023/06/14 07:12:07;;;;;;;6.07;2.17;;;;;;;;;;4998371;28;20052;-63
2023/06/14 07:14:34;;;;;;;9.63;2.47;;;;;;;;;;4998609;28;21243;-64
2023/06/14 07:17:00;;;;;;;5.38;2.00;;;;;;;;;;4998811;28;21845;-63
2023/06/14 07:19:26;;;;;;;4.72;2.00;;;;;;;;;;4998274;28;20069;-63
2023/06/14 07:21:52;;;;;;;6.32;2.17;;;;;;;;;;4998412;28;20793;-63
2023/06/14 07:24:21;;;;;;;6.38;2.15;;;;;;;;;;4997936;28;20045;-64
2023/06/14 07:26:48;;;;;;;7.35;2.13;;;;;;;;;;4998488;28;20590;-63
2023/06/14 07:29:14;;;;;;;4.82;1.77;;;;;;;;;;4997790;28;20417;-63
2023/06/14 07:31:40;;;;;;;5.93;2.25;;;;;;;;;;4997622;28;20377;-62
2023/06/14 07:34:07;;;;;;;8.07;2.40;;;;;;;;;;4998188;28;20037;-63
2023/06/14 07:36:33;;;;;;;3.72;2.03;;;;;;;;;;4997687;28;20044;-63
2023/06/14 07:38:59;;;;;;;4.80;2.20;;;;;;;;;;4995572;28;20501;-63
2023/06/14 07:41:25;;;;;;;6.50;1.80;;;;;;;;;;4998330;28;20031;-63
2023/06/14 07:43:51;;;;;;;6.10;2.30;;;;;;;;;;4996145;28;20045;-63
2023/06/14 07:46:17;;;;;;;4.50;1.80;;;;;;;;;;4998316;28;21947;-63
2023/06/14 07:48:43;;;;;;;6.68;2.05;;;;;;;;;;4997914;28;20029;-63
2023/06/14 07:51:09;;;;;;;10.52;2.10;;;;;;;;;;4997045;28;20034;-63
2023/06/14 07:53:35;;;;;;;3.80;1.63;;;;;;;;;;4998271;28;20030;-64
2023/06/14 07:56:02;;;;;;;9.20;2.30;;;;;;;;;;4996710;28;20144;-63
2023/06/14 07:58:28;;;;;;;7.28;2.20;;;;;;;;;;4997857;28;20484;-63
2023/06/14 08:00:54;;;;;;;6.82;1.92;;;;;;;;;;4997595;28;20473;-64
2023/06/14 08:03:22;;;;;;;5.55;2.30;;;;;;;;;;4995315;28;20049;-63
2023/06/14 08:05:48;;;;;;;6.57;2.72;;;;;;;;;;4995327;28;20029;-63
2023/06/14 08:08:14;;;;;;;5.15;2.00;;;;;;;;;;4995325;28;20061;-64
2023/06/14 08:10:40;;;;;;;4.88;2.00;;;;;;;;;;4994597;28;20038;-63
2023/06/14 08:13:06;;;;;;;5.97;2.10;;;;;;;;;;4995999;28;20112;-64
2023/06/14 08:15:33;;;;;;;5.47;2.28;;;;;;;;;;4996340;28;20025;-64
2023/06/14 08:18:00;;;;;;;7.15;2.10;;;;;;;;;;4996318;28;20057;-63
2023/06/14 08:20:26;;;;;;;4.93;1.98;;;;;;;;;;4995817;28;20037;-63
2023/06/14 08:22:56;;;;;;;4.05;1.90;;;;;;;;;;4998081;28;20029;-63
2023/06/14 08:25:22;;;;;;;5.25;2.00;;;;;;;;;;4997577;28;21033;-64
2023/06/14 08:27:49;;;;;;;5.85;2.13;;;;;;;;;;4998332;28;20045;-64
2023/06/14 08:30:17;;;;;;;5.53;2.08;;;;;;;;;;4997800;28;20504;-64
2023/06/14 08:32:43;;;;;;;5.65;1.80;;;;;;;;;;4997811;28;20037;-63
2023/06/14 08:35:09;;;;;;;5.80;2.10;;;;;;;;;;4997204;28;20029;-64
2023/06/14 08:37:39;;;;;;;5.80;1.88;;;;;;;;;;4994954;28;20049;-64
2023/06/14 08:40:07;;;;;;;5.97;2.03;;;;;;;;;;4991393;28;20037;-63
2023/06/14 08:42:34;;;;;;;13.48;2.08;;;;;;;;;;4996985;28;20044;-64
2023/06/14 08:45:00;;;;;;;9.10;1.92;;;;;;;;;;4995902;28;20030;-63
2023/06/14 08:47:29;;;;;;;6.90;2.00;;;;;;;;;;4997741;28;20041;-64
2023/06/14 08:49:57;;;;;;;3.95;1.58;;;;;;;;;;4995039;28;21520;-64
2023/06/14 08:52:23;;;;;;;5.60;2.15;;;;;;;;;;4997398;28;20078;-64
2023/06/14 08:54:50;;;;;;;5.68;1.90;;;;;;;;;;4997909;28;20030;-63
2023/06/14 08:57:16;;;;;;;6.68;2.20;;;;;;;;;;5000727;28;20037;-64
2023/06/14 08:59:46;;;;;;;9.77;2.45;;;;;;;;;;5000841;28;20037;-64
2023/06/14 09:02:14;;;;;;;4.82;1.70;;;;;;;;;;5000494;28;20033;-64
2023/06/14 09:04:41;;;;;;;3.83;1.80;;;;;;;;;;4999767;28;20049;-64
2023/06/14 09:07:07;;;;;;;6.32;1.60;;;;;;;;;;5001352;28;20045;-64
2023/06/14 09:09:34;;;;;;;6.78;1.75;;;;;;;;;;5001046;28;20084;-64
2023/06/14 09:12:00;;;;;;;3.90;1.80;;;;;;;;;;4999713;28;20135;-63
2023/06/14 09:14:26;;;;;;;4.32;1.63;;;;;;;;;;5001287;28;20576;-64
2023/06/14 09:16:55;;;;;;;5.55;2.10;;;;;;;;;;5001205;28;20049;-64
2023/06/14 09:19:22;;;;;;;6.10;2.30;;;;;;;;;;5000968;28;20567;-64
2023/06/14 09:21:49;;;;;;;6.30;2.05;;;;;;;;;;4999720;28;20602;-63
2023/06/14 09:24:15;;;;;;;12.48;1.70;;;;;;;;;;5000144;28;20140;-64
2023/06/14 09:26:41;;;;;;;6.22;1.90;;;;;;;;;;5001236;28;20037;-64
2023/06/14 09:29:07;;;;;;;6.18;2.10;;;;;;;;;;5000505;28;20649;-64
2023/06/14 09:31:33;;;;;;;7.13;2.53;;;;;;;;;;5000824;28;20088;-64
2023/06/14 09:34:02;;;;;;;6.22;2.17;;;;;;;;;;4999060;28;20044;-64
2023/06/14 09:36:28;;;;;;;5.03;1.95;;;;;;;;;;4999505;28;20037;-64
2023/06/14 09:39:04;;;;;;;5.53;2.40;;;;;;;;;;4999052;28;20041;-64
2023/06/14 09:41:33;;;;;;;6.88;2.35;;;;;;;;;;5000760;28;20390;-63
2023/06/14 09:44:02;;;;;;;8.10;2.40;;;;;;;;;;5000519;28;20107;-64
2023/06/14 09:46:31;;;;;;;5.85;2.90;;;;;;;;;;4999007;28;20452;-64
2023/06/14 09:49:00;;;;;;;5.97;1.80;;;;;;;;;;5000742;28;20683;-64
2023/06/14 09:51:27;;;;;;;4.00;2.00;;;;;;;;;;4999486;28;20728;-64
2023/06/14 09:53:54;;;;;;;3.80;1.67;;;;;;;;;;4999743;28;20037;-63
2023/06/14 09:56:26;;;;;;;5.65;1.92;;;;;;;;;;4999764;28;20037;-64
2023/06/14 09:58:56;;;;;;;4.30;2.20;;;;;;;;;;4999631;28;20029;-64
2023/06/14 10:01:23;;;;;;;8.27;3.30;;;;;;;;;;4999587;28;20065;-64
2023/06/14 10:03:51;;;;;;;4.68;1.75;;;;;;;;;;4998828;28;20041;-64
2023/06/14 10:06:17;;;;;;;4.25;1.80;;;;;;;;;;4999097;28;20044;-64
2023/06/14 10:08:44;;;;;;;6.60;2.42;;;;;;;;;;4998384;28;20034;-64
2023/06/14 10:11:12;;;;;;;6.63;2.08;;;;;;;;;;4998608;28;20030;-64
2023/06/14 10:13:38;;;;;;;8.05;1.90;;;;;;;;;;4998232;28;20202;-64
2023/06/14 10:16:16;;;;;;;6.13;2.35;;;;;;;;;;4994465;28;20048;-64
2023/06/14 10:18:46;;;;;;;8.20;1.80;;;;;;;;;;4997868;28;20064;-64
2023/06/14 10:21:31;;;;;;;5.70;2.13;;;;;;;;;;4998453;28;20037;-64
2023/06/14 10:23:59;;;;;;;4.32;1.75;;;;;;;;;;4997935;28;20429;-64
2023/06/14 10:26:26;;;;;;;5.60;1.90;;;;;;;;;;4998474;28;20049;-64
2023/06/14 10:29:02;;;;;;;5.70;2.05;;;;;;;;;;4997317;28;20034;-64
2023/06/14 10:31:48;;;;;;;8.25;2.10;;;;;;;;;;4998546;28;20079;-64
2023/06/14 10:34:24;;;;;;;5.05;2.30;;;;;;;;;;4997958;28;20045;-64
2023/06/14 10:37:03;;;;;;;8.88;2.25;;;;;;;;;;4997940;28;20034;-64
2023/06/14 10:39:29;;;;;;;4.53;1.80;;;;;;;;;;4998968;28;20131;-64
2023/06/14 10:41:56;;;;;;;5.47;1.80;;;;;;;;;;4998848;28;20080;-64
2023/06/14 10:44:22;;;;;;;6.40;1.80;;;;;;;;;;4999121;28;20037;-64
2023/06/14 10:47:09;;;;;;;4.07;1.70;;;;;;;;;;4998213;28;20030;-64
2023/06/14 10:49:41;;;;;;;5.90;1.80;;;;;;;;;;4998490;28;20033;-64
2023/06/14 10:52:16;;;;;;;6.73;2.10;;;;;;;;;;4998373;28;20404;-64
2023/06/14 10:55:05;;;;;;;11.13;2.20;;;;;;;;;;4999080;28;20057;-64
2023/06/14 10:57:32;;;;;;;6.43;1.88;;;;;;;;;;4996163;28;20052;-64
2023/06/14 11:00:11;;;;;;;5.20;1.90;;;;;;;;;;4999450;28;20068;-64
2023/06/14 11:02:40;;;;;;;7.05;2.03;;;;;;;;;;4996125;28;21008;-64
2023/06/14 11:05:12;;;;;;;10.52;2.30;;;;;;;;;;4997907;28;20947;-64
2023/06/14 11:07:47;;;;;;;4.18;1.60;;;;;;;;;;4996448;28;20032;-64
2023/06/14 11:10:37;;;;;;;5.63;2.00;;;;;;;;;;4997934;28;21258;-64
2023/06/14 11:13:03;;;;;;;5.28;2.25;;;;;;;;;;4993212;28;20041;-64
2023/06/14 11:15:33;;;;;;;7.22;1.85;;;;;;;;;;4998306;28;20084;-64
2023/06/14 11:18:03;;;;;;;6.28;2.00;;;;;;;;;;4997162;28;20061;-64
2023/06/14 11:20:31;;;;;;;4.55;1.85;;;;;;;;;;4997091;28;20038;-64
2023/06/14 11:22:57;;;;;;;4.47;1.85;;;;;;;;;;4996973;28;20025;-64
2023/06/14 11:25:23;;;;;;;4.45;2.03;;;;;;;;;;4997992;28;20410;-64
2023/06/14 11:27:52;;;;;;;6.35;1.80;;;;;;;;;;4998051;28;20030;-64
2023/06/14 11:30:19;;;;;;;6.10;1.75;;;;;;;;;;4997992;28;20083;-64
2023/06/14 11:32:48;;;;;;;4.32;1.50;;;;;;;;;;4996141;28;20037;-64
2023/06/14 11:35:14;;;;;;;6.25;1.92;;;;;;;;;;4996659;28;20058;-64
2023/06/14 11:37:41;;;;;;;3.63;1.80;;;;;;;;;;4997072;28;20154;-64
2023/06/14 11:40:09;;;;;;;4.28;1.70;;;;;;;;;;4996115;28;20101;-64
2023/06/14 11:42:36;;;;;;;3.47;1.52;;;;;;;;;;4997905;28;20087;-64
2023/06/14 11:45:03;;;;;;;5.78;1.67;;;;;;;;;;4996523;28;20153;-64
2023/06/14 11:47:35;;;;;;;4.15;1.70;;;;;;;;;;4994107;28;20408;-64
2023/06/14 11:50:01;;;;;;;3.38;1.55;;;;;;;;;;4995625;28;20064;-64
2023/06/14 11:52:27;;;;;;;2.92;1.30;;;;;;;;;;4997310;28;20030;-64
2023/06/14 11:54:54;;;;;;;2.45;1.33;;;;;;;;;;4997082;28;20108;-64
2023/06/14 11:57:20;;;;;;;4.18;1.33;;;;;;;;;;4996514;28;20082;-64
2023/06/14 11:59:46;;;;;;;5.72;1.30;;;;;;;;;;4996324;28;20022;-64
2023/06/14 12:02:16;;;;;;;6.13;1.83;;;;;;;;;;4995332;28;20041;-64
2023/06/14 12:04:42;;;;;;;4.93;1.40;;;;;;;;;;4997134;28;20060;-64
2023/06/14 12:07:15;;;;;;;2.47;1.45;;;;;;;;;;4996745;28;20170;-64
2023/06/14 12:10:07;;;;;;;4.97;1.57;;;;;;;;;;4997449;28;20076;-64
2023/06/14 12:12:35;;;;;;;5.07;1.58;;;;;;;;;;4997964;28;20036;-64
2023/06/14 12:15:03;;;;;;;4.35;1.25;;;;;;;;;;4997153;28;20022;-64
2023/06/14 12:17:32;;;;;;;8.07;1.65;;;;;;;;;;4995590;28;20149;-64
2023/06/14 12:19:58;;;;;;;3.80;1.45;;;;;;;;;;4996850;28;20026;-64
2023/06/14 12:22:24;;;;;;;2.33;1.38;;;;;;;;;;4993992;28;20034;-64
2023/06/14 12:24:50;;;;;;;5.85;1.80;;;;;;;;;;4996920;28;20088;-64
2023/06/14 12:27:18;;;;;;;4.88;1.50;;;;;;;;;;4995949;28;20026;-63
2023/06/14 12:29:44;;;;;;;2.92;1.50;;;;;;;;;;4995413;28;20021;-64
2023/06/14 12:32:11;;;;;;;3.60;1.10;;;;;;;;;;4994694;28;20025;-64
2023/06/14 12:34:37;;;;;;;8.55;1.80;;;;;;;;;;4996255;28;20041;-64
2023/06/14 12:37:06;;;;;;;3.75;1.45;;;;;;;;;;4995779;28;20029;-64
2023/06/14 12:39:32;;;;;;;3.17;1.02;;;;;;;;;;4996125;28;20038;-63
2023/06/14 12:41:59;;;;;;;4.72;1.10;;;;;;;;;;4996079;28;20607;-64
2023/06/14 12:44:25;;;;;;;6.25;1.52;;;;;;;;;;4996801;28;20048;-64
2023/06/14 12:46:54;;;;;;;3.90;1.50;;;;;;;;;;4995646;28;20037;-64
2023/06/14 12:49:20;;;;;;;4.88;1.38;;;;;;;;;;4996760;28;20053;-64
2023/06/14 12:51:46;;;;;;;2.42;1.10;;;;;;;;;;4997011;28;20036;-63
2023/06/14 12:54:14;;;;;;;5.05;1.63;;;;;;;;;;4997229;28;20465;-64
2023/06/14 12:56:42;;;;;;;5.90;1.38;;;;;;;;;;4996803;28;20460;-64
2023/06/14 12:59:08;;;;;;;3.28;1.40;;;;;;;;;;4995709;28;20030;-64
2023/06/14 13:01:34;;;;;;;4.13;1.20;;;;;;;;;;4995403;28;20033;-64
2023/06/14 13:04:01;;;;;;;4.78;1.38;;;;;;;;;;4996923;28;20026;-64
2023/06/14 13:06:27;;;;;;;3.30;1.52;;;;;;;;;;4997077;28;20144;-64
2023/06/14 13:08:54;;;;;;;4.68;1.60;;;;;;;;;;4995838;28;20991;-64
2023/06/14 13:11:20;;;;;;;2.92;1.20;;;;;;;;;;4996527;28;20088;-64
2023/06/14 13:13:46;;;;;;;6.90;1.50;;;;;;;;;;4996411;28;20037;-64
2023/06/14 13:16:14;;;;;;;5.07;1.20;;;;;;;;;;4996356;28;21004;-63
2023/06/14 13:18:40;;;;;;;4.97;1.42;;;;;;;;;;4995627;28;21130;-64
2023/06/14 13:21:06;;;;;;;5.07;1.30;;;;;;;;;;4997127;28;20041;-64
2023/06/14 13:23:32;;;;;;;6.18;1.30;;;;;;;;;;4997198;28;20030;-63
2023/06/14 13:25:58;;;;;;;3.92;1.30;;;;;;;;;;4995889;28;20025;-63
2023/06/14 13:28:24;;;;;;;4.63;1.35;;;;;;;;;;4994998;28;20060;-63
2023/06/14 13:30:51;;;;;;;3.53;1.35;;;;;;;;;;4996784;28;20034;-64
2023/06/14 13:33:17;;;;;;;3.92;1.33;;;;;;;;;;4995292;28;20148;-63
2023/06/14 13:35:43;;;;;;;3.35;1.38;;;;;;;;;;4996206;28;20087;-64
2023/06/14 13:38:10;;;;;;;6.00;1.45;;;;;;;;;;4995273;28;20029;-64
2023/06/14 13:40:36;;;;;;;3.33;1.40;;;;;;;;;;4995846;28;20743;-64
2023/06/14 13:43:03;;;;;;;3.45;1.33;;;;;;;;;;4998424;28;20037;-63
2023/06/14 13:45:29;;;;;;;4.53;1.50;;;;;;;;;;5000313;28;20045;-63
2023/06/14 13:47:55;;;;;;;4.63;1.50;;;;;;;;;;4999475;28;20029;-63
2023/06/14 13:50:21;;;;;;;4.50;1.63;;;;;;;;;;4999651;28;20516;-63
2023/06/14 13:52:47;;;;;;;3.80;1.40;;;;;;;;;;4999060;28;20080;-63
2023/06/14 13:55:13;;;;;;;4.35;1.45;;;;;;;;;;4999097;28;20030;-64
2023/06/14 13:57:39;;;;;;;5.38;1.30;;;;;;;;;;5000014;28;20100;-63
2023/06/14 14:00:06;;;;;;;4.95;1.70;;;;;;;;;;4999401;28;20720;-64
2023/06/14 14:02:32;;;;;;;5.75;1.60;;;;;;;;;;4998476;28;20083;-63
2023/06/14 14:04:58;;;;;;;4.50;1.60;;;;;;;;;;5000170;28;20061;-64
2023/06/14 14:07:24;;;;;;;3.38;1.30;;;;;;;;;;4999983;28;21019;-63
2023/06/14 14:09:50;;;;;;;1.85;1.30;;;;;;;;;;4999364;28;20051;-64
2023/06/14 14:12:17;;;;;;;5.10;1.80;;;;;;;;;;5000233;28;20040;-63
2023/06/14 14:14:43;;;;;;;4.10;1.45;;;;;;;;;;4998663;28;20025;-63
2023/06/14 14:17:09;;;;;;;3.58;1.40;;;;;;;;;;4998930;28;20041;-64
2023/06/14 14:19:35;;;;;;;4.22;1.63;;;;;;;;;;4997069;28;20119;-64
2023/06/14 14:22:01;;;;;;;5.72;1.67;;;;;;;;;;4998640;28;20053;-64
2023/06/14 14:24:27;;;;;;;2.85;1.17;;;;;;;;;;4999462;28;20465;-64
2023/06/14 14:26:53;;;;;;;4.50;1.60;;;;;;;;;;4999573;28;20034;-64
2023/06/14 14:29:20;;;;;;;7.10;1.50;;;;;;;;;;4999247;28;20068;-64
2023/06/14 14:31:46;;;;;;;4.32;1.20;;;;;;;;;;4999540;28;21888;-64
2023/06/14 14:34:12;;;;;;;5.15;1.45;;;;;;;;;;4999932;28;20072;-63
2023/06/14 14:36:42;;;;;;;4.18;1.90;;;;;;;;;;4998619;28;20040;-64
2023/06/14 14:39:08;;;;;;;6.07;1.90;;;;;;;;;;4997704;28;20501;-64
2023/06/14 14:41:34;;;;;;;4.85;1.48;;;;;;;;;;4994515;28;20124;-63
2023/06/14 14:44:00;;;;;;;4.22;1.65;;;;;;;;;;4996813;28;20044;-63